createdAt,value
2018-06-13T00:00:02.713Z,16.6
2018-06-13T00:15:03.034Z,16.6
2018-06-13T00:30:02.471Z,16.5
2018-06-13T00:45:02.792Z,16.6
2018-06-13T01:00:03.214Z,16.4
2018-06-13T01:15:02.545Z,16.6
2018-06-13T01:30:03.022Z,16.3
2018-06-13T01:45:02.399Z,16.4
2018-06-13T02:00:02.725Z,16.3
2018-06-13T02:15:03.021Z,16.4
2018-06-13T02:30:02.410Z,16.2
2018-06-13T02:45:02.795Z,16.2
2018-06-13T03:00:03.125Z,16.2
2018-06-13T03:15:02.565Z,16.2
2018-06-13T03:30:03.124Z,16.1
2018-06-13T03:45:02.604Z,16.1
2018-06-13T04:00:02.896Z,16.2
2018-06-13T04:15:03.249Z,16.3
2018-06-13T04:30:02.683Z,16.2
2018-06-13T04:45:03.108Z,16.2
2018-06-13T05:00:02.467Z,16.2
2018-06-13T05:15:02.785Z,16.4
2018-06-13T05:30:12.175Z,16.5
2018-06-13T05:45:02.677Z,16.3
2018-06-13T06:00:03.463Z,16.4
2018-06-13T06:15:02.796Z,16.6
2018-06-13T06:30:02.340Z,16.2
2018-06-13T06:45:02.693Z,15.8
2018-06-13T07:00:03.573Z,15.6
2018-06-13T07:15:02.995Z,15.5
2018-06-13T07:30:03.251Z,15.3
2018-06-13T07:45:02.698Z,15
2018-06-13T08:00:04.061Z,14.6
2018-06-13T08:15:02.484Z,14.4
2018-06-13T08:30:02.923Z,14.3
2018-06-13T08:45:03.375Z,14.4
2018-06-13T09:00:02.891Z,14.2
2018-06-13T09:15:03.386Z,14.1
2018-06-13T09:30:03.001Z,14.2
2018-06-13T09:45:02.527Z,14
2018-06-13T10:00:03.048Z,13.9
2018-06-13T10:15:02.642Z,13.8
2018-06-13T10:30:03.177Z,14.1
2018-06-13T10:45:02.654Z,14.2
2018-06-13T11:00:03.035Z,14.2
2018-06-13T11:15:02.480Z,14.3
2018-06-13T11:30:02.928Z,14.8
2018-06-13T11:45:03.318Z,14.9
2018-06-13T12:00:02.692Z,14.7
2018-06-13T12:15:03.033Z,14.8
2018-06-13T12:30:02.543Z,14.8
2018-06-13T12:45:02.907Z,14.9
2018-06-13T13:00:03.242Z,15
2018-06-13T13:15:02.585Z,15.1
2018-06-13T13:30:03.071Z,15.1
2018-06-13T13:45:02.415Z,15
2018-06-13T14:00:02.771Z,15
2018-06-13T14:15:03.175Z,15
2018-06-13T14:30:02.633Z,14.8
2018-06-13T14:45:03.026Z,14.8
2018-06-13T15:00:02.404Z,14.8
2018-06-13T15:15:02.722Z,14.8
2018-06-13T15:30:03.121Z,14.5
2018-06-13T15:45:02.467Z,14.3
2018-06-13T16:00:02.887Z,14.4
2018-06-13T16:15:03.242Z,14.1
2018-06-13T16:30:02.685Z,13.9
2018-06-13T16:45:03.037Z,13.8
2018-06-13T17:00:02.403Z,14.1
2018-06-13T17:15:02.712Z,14.2
2018-06-13T17:30:03.143Z,14.2
2018-06-13T17:45:02.498Z,14.2
2018-06-13T18:00:02.981Z,14.2
2018-06-13T18:15:02.440Z,14.2
2018-06-13T18:30:02.898Z,13.9
2018-06-13T18:45:03.262Z,13.8
2018-06-13T19:00:02.589Z,13.9
2018-06-13T19:15:02.986Z,13.8
2018-06-13T19:30:02.418Z,13.6
2018-06-13T19:45:02.777Z,13.5
2018-06-13T20:00:03.153Z,13.4
2018-06-13T20:15:02.476Z,13.4
2018-06-13T20:30:03.017Z,13.3
2018-06-13T20:45:02.381Z,13.3
2018-06-13T21:00:02.787Z,13.2
2018-06-13T21:15:03.195Z,13.1
2018-06-13T21:30:02.610Z,13.2
2018-06-13T21:45:02.977Z,13.2
2018-06-13T22:00:02.382Z,13.2
2018-06-13T22:15:02.721Z,13.2
2018-06-13T22:30:03.288Z,13.2
2018-06-13T22:45:02.663Z,13.1
2018-06-13T23:00:03.020Z,13.1
2018-06-13T23:15:02.475Z,12.9
2018-06-13T23:30:02.874Z,13.1
2018-06-13T23:45:03.260Z,13.1
